Kenai Municipal Airport Airport (ENA)

 

Airport Diagram
Current Weather/Forecast (LIFR Conditions)
METAR PAEN 312237Z 20013KT 10SM -RA BKN004 OVC046 02/01 A2870 RMK AO2 RAB2159 P0000 T00170006
TAF PAEN 311741Z 3118/0118 08008KT P6SM -RA SCT025 BKN050 FM010200 14012KT 3SM -SN BR OVC015 FM010800 19015KT P6SM VCSH OVC025

All Charts

Inbound Traffic (Arrivals)

No inbound traffic.


Outbound Traffic (Departures)

No outbound traffic.